createdAt,value
2023-02-01T00:00:16.575Z,3.00
2023-02-01T00:02:43.140Z,2.97
2023-02-01T00:05:09.886Z,2.86
2023-02-01T00:07:36.954Z,2.96
2023-02-01T00:10:04.595Z,3.00
2023-02-01T00:12:31.654Z,3.00
2023-02-01T00:14:58.124Z,2.99
2023-02-01T00:17:24.631Z,3.00
2023-02-01T00:19:51.096Z,3.12
2023-02-01T00:22:17.576Z,3.06
2023-02-01T00:24:44.059Z,3.06
2023-02-01T00:27:10.548Z,3.10
2023-02-01T00:29:37.030Z,3.15
2023-02-01T00:32:03.644Z,3.06
2023-02-01T00:34:30.150Z,3.00
2023-02-01T00:36:56.643Z,2.89
2023-02-01T00:39:23.112Z,2.99
2023-02-01T00:41:49.617Z,2.96
2023-02-01T00:44:16.188Z,3.03
2023-02-01T00:46:42.860Z,2.96
2023-02-01T00:49:10.070Z,2.99
2023-02-01T00:51:36.627Z,2.93
2023-02-01T00:54:04.359Z,2.95
2023-02-01T00:56:30.928Z,3.05
2023-02-01T00:58:57.403Z,3.06
2023-02-01T01:01:25.429Z,3.09
2023-02-01T01:03:54.813Z,3.11
2023-02-01T01:06:23.181Z,3.00
2023-02-01T01:08:51.781Z,2.91
2023-02-01T01:11:19.830Z,3.05
2023-02-01T01:13:50.130Z,3.00
2023-02-01T01:16:16.615Z,2.97
2023-02-01T01:18:43.298Z,2.93
2023-02-01T01:21:10.242Z,2.93
2023-02-01T01:23:36.924Z,2.97
2023-02-01T01:26:12.940Z,2.87
2023-02-01T01:28:39.415Z,2.88
2023-02-01T01:31:09.283Z,2.79
2023-02-01T01:33:35.830Z,3.01
2023-02-01T01:36:02.476Z,3.08
2023-02-01T01:38:28.958Z,2.96
2023-02-01T01:40:55.452Z,2.90
2023-02-01T01:43:24.673Z,2.92
2023-02-01T01:45:51.654Z,2.99
2023-02-01T01:48:26.847Z,3.04
2023-02-01T01:50:57.922Z,3.02
2023-02-01T01:53:26.911Z,3.01
2023-02-01T01:55:53.392Z,3.02
2023-02-01T01:58:20.565Z,3.04
2023-02-01T02:00:47.112Z,3.08
2023-02-01T02:03:28.204Z,3.10
2023-02-01T02:05:55.938Z,3.13
2023-02-01T02:08:22.424Z,3.11
2023-02-01T02:11:01.532Z,3.26
2023-02-01T02:13:33.897Z,3.12
2023-02-01T02:16:06.391Z,3.19
2023-02-01T02:18:57.267Z,3.24
2023-02-01T02:21:57.558Z,3.21
2023-02-01T02:24:42.169Z,3.27
2023-02-01T02:27:27.748Z,3.31
2023-02-01T02:30:22.314Z,3.40
2023-02-01T02:33:16.526Z,3.39
2023-02-01T02:35:57.677Z,3.47
2023-02-01T02:38:50.633Z,3.38
2023-02-01T02:41:50.836Z,3.44
2023-02-01T02:44:55.857Z,3.39
2023-02-01T02:47:26.360Z,3.38
2023-02-01T02:50:16.002Z,3.42
2023-02-01T02:53:12.886Z,3.46
2023-02-01T02:55:39.664Z,3.46
2023-02-01T02:58:24.884Z,3.48
2023-02-01T03:01:10.017Z,3.52
2023-02-01T03:03:58.129Z,3.54
2023-02-01T03:06:24.676Z,3.54
2023-02-01T03:08:55.031Z,3.52
2023-02-01T03:11:21.350Z,3.50
2023-02-01T03:14:01.471Z,3.53
2023-02-01T03:16:40.186Z,3.52
2023-02-01T03:19:26.799Z,3.50
2023-02-01T03:21:56.073Z,3.55
2023-02-01T03:24:33.990Z,3.56
2023-02-01T03:27:08.737Z,3.53
2023-02-01T03:29:39.559Z,3.54
2023-02-01T03:32:06.054Z,3.56
2023-02-01T03:34:32.526Z,3.55
2023-02-01T03:37:00.744Z,3.66
2023-02-01T03:39:36.172Z,3.57
2023-02-01T03:42:09.677Z,3.53
2023-02-01T03:44:41.279Z,3.50
2023-02-01T03:47:10.819Z,3.53
2023-02-01T03:49:42.796Z,3.56
2023-02-01T03:52:15.311Z,3.59
2023-02-01T03:54:41.864Z,3.54
2023-02-01T03:57:10.772Z,3.57
2023-02-01T03:59:42.753Z,3.54
2023-02-01T04:02:09.246Z,3.62
2023-02-01T04:04:35.901Z,3.62
2023-02-01T04:07:02.362Z,3.60
2023-02-01T04:09:29.091Z,3.60
2023-02-01T04:11:55.823Z,3.64
2023-02-01T04:14:22.357Z,3.68
2023-02-01T04:16:48.868Z,3.57
2023-02-01T04:19:15.560Z,3.62
2023-02-01T04:21:42.165Z,3.67
2023-02-01T04:24:09.643Z,3.71
2023-02-01T04:26:36.321Z,3.69
2023-02-01T04:29:02.882Z,3.66
2023-02-01T04:31:29.438Z,3.65
2023-02-01T04:33:56.562Z,3.77
2023-02-01T04:36:23.091Z,3.65
2023-02-01T04:38:52.719Z,3.65
2023-02-01T04:41:20.038Z,3.75
2023-02-01T04:43:47.405Z,3.67
2023-02-01T04:46:13.891Z,3.68
2023-02-01T04:48:40.414Z,3.73
2023-02-01T04:51:06.877Z,3.68
2023-02-01T04:53:33.423Z,3.74
2023-02-01T04:55:59.882Z,3.66
2023-02-01T04:58:26.362Z,3.59
2023-02-01T05:00:52.812Z,3.58
2023-02-01T05:03:19.435Z,3.57
2023-02-01T05:05:45.928Z,3.65
2023-02-01T05:08:12.411Z,3.53
2023-02-01T05:10:39.166Z,3.57
2023-02-01T05:13:24.378Z,3.50
2023-02-01T05:15:51.722Z,3.61
2023-02-01T05:18:18.245Z,3.57
2023-02-01T05:20:44.712Z,3.55
2023-02-01T05:23:11.184Z,3.54
2023-02-01T05:25:37.909Z,3.43
2023-02-01T05:28:04.448Z,3.43
2023-02-01T05:30:30.913Z,3.38
2023-02-01T05:32:57.381Z,3.34
2023-02-01T05:35:23.856Z,3.33
2023-02-01T05:37:50.317Z,3.22
2023-02-01T05:40:17.296Z,3.23
2023-02-01T05:42:43.765Z,3.19
2023-02-01T05:45:10.386Z,3.23
2023-02-01T05:47:36.884Z,3.13
2023-02-01T05:50:04.294Z,3.14
2023-02-01T05:52:30.814Z,3.11
2023-02-01T05:54:57.339Z,3.11
2023-02-01T05:57:23.800Z,3.15
2023-02-01T05:59:50.311Z,3.20
2023-02-01T06:02:17.103Z,3.15
2023-02-01T06:04:43.585Z,3.21
2023-02-01T06:07:11.212Z,3.19
2023-02-01T06:09:38.068Z,3.15
2023-02-01T06:12:04.996Z,3.18
2023-02-01T06:14:31.474Z,3.14
2023-02-01T06:16:57.958Z,3.22
2023-02-01T06:19:24.437Z,3.29
2023-02-01T06:21:50.904Z,3.22
2023-02-01T06:24:17.411Z,3.27
2023-02-01T06:26:43.882Z,3.35
2023-02-01T06:29:10.969Z,3.25
2023-02-01T06:31:37.451Z,3.32
2023-02-01T06:34:03.993Z,3.42
2023-02-01T06:36:30.523Z,3.43
2023-02-01T06:38:57.618Z,3.41
2023-02-01T06:41:24.337Z,3.50
2023-02-01T06:43:50.833Z,3.47
2023-02-01T06:46:17.325Z,3.46
2023-02-01T06:48:43.906Z,3.48
2023-02-01T06:51:23.815Z,3.50
2023-02-01T06:53:50.355Z,3.50
2023-02-01T06:56:16.871Z,3.56
2023-02-01T06:58:43.486Z,3.53
2023-02-01T07:01:10.659Z,3.54
2023-02-01T07:03:37.555Z,3.69
2023-02-01T07:06:04.601Z,3.61
2023-02-01T07:08:31.934Z,3.55
2023-02-01T07:11:01.882Z,3.61
2023-02-01T07:13:28.339Z,3.58
2023-02-01T07:15:54.859Z,3.60
2023-02-01T07:18:21.343Z,3.54
2023-02-01T07:20:51.027Z,3.52
2023-02-01T07:23:17.488Z,3.48
2023-02-01T07:25:43.960Z,3.43
2023-02-01T07:28:10.439Z,3.48
2023-02-01T07:30:36.991Z,3.63
2023-02-01T07:33:03.563Z,3.69
2023-02-01T07:35:30.098Z,3.65
2023-02-01T07:37:58.046Z,3.65
2023-02-01T07:40:29.774Z,3.64
2023-02-01T07:42:56.917Z,3.59
2023-02-01T07:45:23.612Z,3.65
2023-02-01T07:47:50.143Z,3.70
2023-02-01T07:50:16.873Z,3.72
2023-02-01T07:52:43.364Z,3.65
2023-02-01T07:55:10.040Z,3.71
2023-02-01T07:57:36.513Z,3.78
2023-02-01T08:00:22.563Z,3.83
2023-02-01T08:02:49.490Z,3.78
2023-02-01T08:05:15.979Z,3.82
2023-02-01T08:07:42.447Z,3.83
2023-02-01T08:10:12.078Z,3.83
2023-02-01T08:12:39.367Z,3.88
2023-02-01T08:15:06.292Z,3.86
2023-02-01T08:17:32.754Z,3.92
2023-02-01T08:19:59.238Z,3.91
2023-02-01T08:22:25.745Z,3.92
2023-02-01T08:24:52.630Z,3.94
2023-02-01T08:27:19.199Z,3.96
2023-02-01T08:29:45.671Z,4.05
2023-02-01T08:32:12.126Z,3.99
2023-02-01T08:34:38.895Z,4.02
2023-02-01T08:37:05.370Z,4.06
2023-02-01T08:39:31.906Z,4.03
2023-02-01T08:42:20.128Z,4.03
2023-02-01T08:44:48.084Z,4.00
2023-02-01T08:47:14.561Z,4.03
2023-02-01T08:49:41.026Z,4.07
2023-02-01T08:52:15.444Z,4.11
2023-02-01T08:54:42.920Z,4.15
2023-02-01T08:57:10.531Z,4.18
2023-02-01T08:59:36.998Z,4.24
2023-02-01T09:02:03.458Z,4.15
2023-02-01T09:04:29.928Z,4.18
2023-02-01T09:06:56.662Z,4.23
2023-02-01T09:09:23.973Z,4.28
2023-02-01T09:11:53.515Z,4.31
2023-02-01T09:14:19.999Z,4.37
2023-02-01T09:16:46.468Z,4.37
2023-02-01T09:19:26.062Z,4.35
2023-02-01T09:21:53.106Z,4.35
2023-02-01T09:24:19.792Z,4.39
2023-02-01T09:26:46.373Z,4.35
2023-02-01T09:29:13.044Z,4.33
2023-02-01T09:31:41.871Z,4.35
2023-02-01T09:34:18.208Z,4.33
2023-02-01T09:36:44.728Z,4.37
2023-02-01T09:39:11.181Z,4.42
2023-02-01T09:41:44.006Z,4.51
2023-02-01T09:44:44.600Z,4.50
2023-02-01T09:47:18.729Z,4.58
2023-02-01T09:49:53.772Z,4.70
2023-02-01T09:52:24.000Z,4.68
2023-02-01T09:55:03.863Z,4.66
2023-02-01T09:58:01.292Z,4.71
2023-02-01T10:00:34.894Z,4.61
2023-02-01T10:03:01.379Z,4.63
2023-02-01T10:06:00.728Z,4.70
2023-02-01T10:09:01.969Z,4.67
2023-02-01T10:11:49.209Z,4.75
2023-02-01T10:14:28.944Z,4.68
2023-02-01T10:17:23.310Z,4.58
2023-02-01T10:19:59.460Z,4.51
2023-02-01T10:25:39.914Z,4.52
2023-02-01T10:28:08.214Z,4.52
2023-02-01T10:30:48.921Z,4.48
2023-02-01T10:33:23.014Z,4.51
2023-02-01T10:35:53.448Z,4.62
2023-02-01T10:38:28.132Z,4.56
2023-02-01T10:40:55.210Z,4.68
2023-02-01T10:43:21.669Z,4.66
2023-02-01T10:45:48.136Z,4.66
2023-02-01T10:48:14.616Z,4.71
2023-02-01T10:50:59.804Z,4.71
2023-02-01T10:53:43.748Z,4.59
2023-02-01T10:56:11.249Z,4.65
2023-02-01T10:58:44.278Z,4.64
2023-02-01T11:01:16.774Z,4.51
2023-02-01T11:03:56.904Z,4.53
2023-02-01T11:06:31.025Z,4.49
2023-02-01T11:09:06.436Z,4.53
2023-02-01T11:11:33.378Z,4.43
2023-02-01T11:14:01.301Z,4.42
2023-02-01T11:16:34.483Z,4.47
2023-02-01T11:19:01.025Z,4.52
2023-02-01T11:21:27.816Z,4.55
2023-02-01T11:23:54.310Z,4.60
2023-02-01T11:26:27.193Z,4.54
2023-02-01T11:29:04.974Z,4.62
2023-02-01T11:31:31.897Z,4.57
2023-02-01T11:34:08.255Z,4.59
2023-02-01T11:36:36.976Z,4.61
2023-02-01T11:39:31.701Z,4.54
2023-02-01T11:42:02.519Z,4.56
2023-02-01T11:44:38.159Z,4.55
2023-02-01T11:47:27.552Z,4.55
2023-02-01T11:49:58.161Z,4.53
2023-02-01T11:52:46.581Z,4.61
2023-02-01T11:55:25.685Z,4.56
2023-02-01T11:58:12.876Z,4.52
2023-02-01T12:01:08.659Z,4.55
2023-02-01T12:03:59.234Z,4.55
2023-02-01T12:06:47.117Z,4.66
2023-02-01T12:09:23.253Z,4.66
2023-02-01T12:12:14.616Z,4.63
2023-02-01T12:15:03.082Z,4.57
2023-02-01T12:17:54.017Z,4.49
2023-02-01T12:20:33.536Z,4.50
2023-02-01T12:23:22.625Z,4.51
2023-02-01T12:26:32.209Z,4.52
2023-02-01T12:29:04.386Z,4.43
2023-02-01T12:31:43.002Z,4.39
2023-02-01T12:34:38.104Z,4.31
2023-02-01T12:37:19.276Z,4.24
2023-02-01T12:39:52.959Z,4.20
2023-02-01T12:42:31.149Z,4.08
2023-02-01T12:45:17.383Z,4.02
2023-02-01T12:47:48.177Z,3.93
2023-02-01T12:50:22.789Z,3.93
2023-02-01T12:52:51.129Z,3.90
2023-02-01T12:55:24.569Z,3.89
2023-02-01T12:58:17.659Z,3.90
2023-02-01T13:00:45.965Z,3.93
2023-02-01T13:03:15.031Z,3.82
2023-02-01T13:05:59.189Z,3.80
2023-02-01T13:08:38.412Z,3.81
2023-02-01T13:11:07.517Z,3.70
2023-02-01T13:13:45.787Z,3.72
2023-02-01T13:16:18.893Z,3.72
2023-02-01T13:18:49.692Z,3.71
2023-02-01T13:21:29.389Z,3.69
2023-02-01T13:23:56.930Z,3.64
2023-02-01T13:26:23.486Z,3.59
2023-02-01T13:28:54.250Z,3.55
2023-02-01T13:31:49.615Z,3.60
2023-02-01T13:34:45.228Z,3.61
2023-02-01T13:37:54.202Z,3.59
2023-02-01T13:40:42.321Z,3.61
2023-02-01T13:43:13.619Z,3.62
2023-02-01T13:45:47.941Z,3.67
2023-02-01T13:48:40.027Z,3.71
2023-02-01T13:51:06.525Z,3.78
2023-02-01T13:53:34.898Z,3.82
2023-02-01T13:56:08.568Z,3.81
2023-02-01T13:58:39.605Z,3.85
2023-02-01T14:01:24.650Z,3.88
2023-02-01T14:03:52.764Z,3.87
2023-02-01T14:06:28.272Z,3.85
2023-02-01T14:09:18.256Z,3.91
2023-02-01T14:11:51.814Z,3.90
2023-02-01T14:14:18.139Z,3.90
2023-02-01T14:16:45.605Z,3.94
2023-02-01T14:19:23.802Z,4.05
2023-02-01T14:22:02.336Z,4.14
2023-02-01T14:24:30.688Z,4.22
2023-02-01T14:26:58.482Z,4.21
2023-02-01T14:29:35.969Z,4.24
2023-02-01T14:32:06.968Z,4.27
2023-02-01T14:34:48.886Z,4.27
2023-02-01T14:37:18.416Z,4.22
2023-02-01T14:39:47.817Z,4.28
2023-02-01T14:42:43.644Z,4.22
2023-02-01T14:45:28.790Z,4.14
2023-02-01T14:48:16.104Z,4.27
2023-02-01T14:50:43.218Z,4.25
2023-02-01T14:53:09.580Z,4.24
2023-02-01T14:55:42.965Z,4.25
2023-02-01T14:58:19.824Z,4.22
2023-02-01T15:01:01.537Z,4.26
2023-02-01T15:04:02.232Z,4.25
2023-02-01T15:06:37.253Z,4.22
2023-02-01T15:09:16.945Z,4.19
2023-02-01T15:12:15.718Z,4.17
2023-02-01T15:14:50.374Z,4.16
2023-02-01T15:17:24.675Z,4.15
2023-02-01T15:19:55.333Z,4.10
2023-02-01T15:22:21.937Z,4.05
2023-02-01T15:24:59.200Z,3.97
2023-02-01T15:27:26.388Z,4.01
2023-02-01T15:29:52.864Z,4.04
2023-02-01T15:32:36.071Z,4.03
2023-02-01T15:35:02.600Z,4.02
2023-02-01T15:37:29.360Z,4.05
2023-02-01T15:40:05.827Z,4.06
2023-02-01T15:42:32.401Z,4.03
2023-02-01T15:44:58.856Z,4.03
2023-02-01T15:47:26.907Z,4.06
2023-02-01T15:49:57.810Z,4.08
2023-02-01T15:52:35.123Z,4.09
2023-02-01T15:55:02.870Z,4.15
2023-02-01T15:57:31.752Z,4.12
2023-02-01T16:00:06.439Z,4.10
2023-02-01T16:02:45.501Z,4.14
2023-02-01T16:05:34.252Z,4.22
2023-02-01T16:08:17.066Z,4.24
2023-02-01T16:10:46.657Z,4.21
2023-02-01T16:13:13.889Z,4.29
2023-02-01T16:15:40.370Z,4.25
2023-02-01T16:18:08.775Z,4.25
2023-02-01T16:20:36.285Z,4.24
2023-02-01T16:23:03.757Z,4.34
2023-02-01T16:25:30.253Z,4.37
2023-02-01T16:27:56.753Z,4.34
2023-02-01T16:30:25.990Z,4.33
2023-02-01T16:32:56.318Z,4.41
2023-02-01T16:35:30.782Z,4.39
2023-02-01T16:37:57.258Z,4.42
2023-02-01T16:40:27.309Z,4.41
2023-02-01T16:42:56.091Z,4.39
2023-02-01T16:45:22.878Z,4.38
2023-02-01T16:47:52.906Z,4.32
2023-02-01T16:50:23.803Z,4.36
2023-02-01T16:52:50.883Z,4.32
2023-02-01T16:55:18.547Z,4.29
2023-02-01T16:57:45.431Z,4.30
2023-02-01T17:00:24.674Z,4.25
2023-02-01T17:02:52.433Z,4.18
2023-02-01T17:05:19.307Z,4.14
2023-02-01T17:07:46.071Z,4.03
2023-02-01T17:10:35.551Z,3.91
2023-02-01T17:13:02.937Z,3.70
2023-02-01T17:15:30.779Z,3.70
2023-02-01T17:17:58.785Z,3.76
2023-02-01T17:20:25.639Z,3.74
2023-02-01T17:22:52.949Z,3.86
2023-02-01T17:25:22.355Z,3.84
2023-02-01T17:27:49.359Z,3.97
2023-02-01T17:30:15.953Z,3.93
2023-02-01T17:32:42.697Z,4.10
2023-02-01T17:35:22.514Z,4.04
2023-02-01T17:37:49.533Z,4.11
2023-02-01T17:40:16.191Z,4.14
2023-02-01T17:42:42.713Z,4.16
2023-02-01T17:45:27.471Z,4.09
2023-02-01T17:47:54.099Z,4.05
2023-02-01T17:50:20.579Z,4.14
2023-02-01T17:52:47.219Z,4.12
2023-02-01T17:55:22.489Z,4.21
2023-02-01T17:57:49.729Z,4.12
2023-02-01T18:00:17.334Z,4.15
2023-02-01T18:02:44.946Z,4.05
2023-02-01T18:05:20.026Z,3.98
2023-02-01T18:07:46.660Z,3.93
2023-02-01T18:10:13.196Z,3.93
2023-02-01T18:12:39.728Z,3.93
2023-02-01T18:15:20.512Z,3.86
2023-02-01T18:17:47.440Z,3.95
2023-02-01T18:20:21.069Z,3.92
2023-02-01T18:22:50.560Z,3.80
2023-02-01T18:25:29.837Z,3.80
2023-02-01T18:27:57.369Z,3.90
2023-02-01T18:30:25.973Z,3.83
2023-02-01T18:32:52.444Z,3.73
2023-02-01T18:35:24.066Z,3.63
2023-02-01T18:37:51.046Z,3.64
2023-02-01T18:40:22.268Z,3.73
2023-02-01T18:42:48.806Z,3.88
2023-02-01T18:45:26.497Z,3.83
2023-02-01T18:47:53.127Z,3.90
2023-02-01T18:50:19.707Z,3.96
2023-02-01T18:52:46.628Z,4.00
2023-02-01T18:55:13.175Z,3.88
2023-02-01T18:57:40.018Z,3.87
2023-02-01T19:00:07.799Z,3.91
2023-02-01T19:02:34.396Z,3.93
2023-02-01T19:05:00.909Z,4.02
2023-02-01T19:07:27.388Z,4.04
2023-02-01T19:09:54.504Z,4.02
2023-02-01T19:12:21.104Z,3.96
2023-02-01T19:14:47.572Z,3.86
2023-02-01T19:17:14.083Z,3.80
2023-02-01T19:19:42.003Z,3.89
2023-02-01T19:22:08.535Z,3.83
2023-02-01T19:24:35.056Z,3.89
2023-02-01T19:27:01.517Z,3.85
2023-02-01T19:29:28.112Z,3.85
2023-02-01T19:31:54.795Z,3.95
2023-02-01T19:34:21.305Z,3.91
2023-02-01T19:36:48.154Z,3.82
2023-02-01T19:39:14.693Z,3.73
2023-02-01T19:41:41.175Z,3.78
2023-02-01T19:44:07.720Z,3.86
2023-02-01T19:46:34.222Z,3.78
2023-02-01T19:49:00.731Z,3.78
2023-02-01T19:51:27.199Z,3.86
2023-02-01T19:53:53.723Z,3.81
2023-02-01T19:56:20.197Z,3.79
2023-02-01T19:58:46.772Z,3.83
2023-02-01T20:01:13.171Z,3.74
2023-02-01T20:03:46.123Z,3.84
2023-02-01T20:06:12.609Z,3.80
2023-02-01T20:08:39.118Z,3.89
2023-02-01T20:11:06.526Z,3.83
2023-02-01T20:13:35.144Z,3.87
2023-02-01T20:16:01.711Z,3.79
2023-02-01T20:18:28.209Z,3.83
2023-02-01T20:20:58.219Z,3.90
2023-02-01T20:23:25.036Z,3.91
2023-02-01T20:25:52.688Z,3.99
2023-02-01T20:28:19.431Z,3.95
2023-02-01T20:30:46.386Z,3.93
2023-02-01T20:33:12.973Z,4.02
2023-02-01T20:35:44.389Z,3.97
2023-02-01T20:38:10.886Z,4.09
2023-02-01T20:40:37.921Z,4.11
2023-02-01T20:43:04.413Z,4.16
2023-02-01T20:45:30.904Z,4.12
2023-02-01T20:47:57.631Z,4.14
2023-02-01T20:50:25.141Z,4.04
2023-02-01T20:52:51.648Z,4.08
2023-02-01T20:55:18.123Z,4.05
2023-02-01T20:57:44.629Z,4.11
2023-02-01T21:00:11.751Z,4.16
2023-02-01T21:02:38.277Z,4.07
2023-02-01T21:05:05.426Z,4.08
2023-02-01T21:07:31.882Z,4.19
2023-02-01T21:09:58.346Z,4.08
2023-02-01T21:12:25.237Z,4.07
2023-02-01T21:14:51.696Z,4.06
2023-02-01T21:17:18.443Z,4.08
2023-02-01T21:19:44.934Z,4.07
2023-02-01T21:22:12.125Z,4.04
2023-02-01T21:24:40.630Z,4.00
2023-02-01T21:27:10.563Z,4.04
2023-02-01T21:29:37.059Z,4.07
2023-02-01T21:32:04.182Z,4.13
2023-02-01T21:34:30.714Z,4.18
2023-02-01T21:36:57.189Z,4.09
2023-02-01T21:39:23.788Z,4.14
2023-02-01T21:42:09.088Z,4.11
2023-02-01T21:44:35.555Z,4.08
2023-02-01T21:47:02.441Z,4.00
2023-02-01T21:49:29.293Z,4.05
2023-02-01T21:51:56.022Z,4.05
2023-02-01T21:54:22.488Z,3.99
2023-02-01T21:56:48.959Z,4.01
2023-02-01T21:59:15.682Z,3.95
2023-02-01T22:01:42.211Z,3.85
2023-02-01T22:04:10.100Z,3.91
2023-02-01T22:06:41.701Z,3.84
2023-02-01T22:09:16.583Z,4.00
2023-02-01T22:11:43.037Z,3.91
2023-02-01T22:14:09.752Z,3.89
2023-02-01T22:16:36.531Z,3.88
2023-02-01T22:19:03.036Z,3.85
2023-02-01T22:21:29.507Z,3.82
2023-02-01T22:23:57.495Z,3.95
2023-02-01T22:26:24.225Z,3.89
2023-02-01T22:28:50.724Z,3.81
2023-02-01T22:31:17.391Z,3.80
2023-02-01T22:33:45.455Z,3.81
2023-02-01T22:36:12.683Z,3.92
2023-02-01T22:38:39.159Z,3.86
2023-02-01T22:41:06.161Z,3.93
2023-02-01T22:43:33.742Z,3.96
2023-02-01T22:46:01.207Z,3.99
2023-02-01T22:48:28.795Z,3.99
2023-02-01T22:50:58.818Z,3.91
2023-02-01T22:53:25.363Z,4.02
2023-02-01T22:55:52.002Z,4.14
2023-02-01T22:58:19.141Z,4.07
2023-02-01T23:00:45.754Z,3.97
2023-02-01T23:03:12.279Z,4.01
2023-02-01T23:05:39.613Z,4.09
2023-02-01T23:08:06.083Z,4.04
2023-02-01T23:10:32.619Z,4.02
2023-02-01T23:12:59.086Z,4.03
2023-02-01T23:15:25.857Z,4.07
2023-02-01T23:17:52.410Z,3.96
2023-02-01T23:20:19.053Z,4.02
2023-02-01T23:22:46.735Z,4.07
2023-02-01T23:25:15.998Z,4.09
2023-02-01T23:27:42.581Z,4.02
2023-02-01T23:30:10.330Z,4.02
2023-02-01T23:32:36.802Z,4.03
2023-02-01T23:35:04.203Z,4.03
2023-02-01T23:37:30.725Z,3.95
2023-02-01T23:39:57.248Z,4.03
2023-02-01T23:42:23.723Z,4.00
2023-02-01T23:44:50.372Z,4.01
2023-02-01T23:47:16.844Z,4.00
2023-02-01T23:49:43.368Z,4.03
2023-02-01T23:52:09.830Z,4.00
2023-02-01T23:54:36.338Z,3.95
2023-02-01T23:57:02.804Z,3.96
2023-02-01T23:59:30.570Z,3.99
